createdAt,value
2022-10-01T00:00:48.395Z,11.19
2022-10-01T00:03:50.384Z,11.14
2022-10-01T00:06:51.848Z,11.18
2022-10-01T00:09:53.247Z,11.26
2022-10-01T00:12:54.640Z,11.29
2022-10-01T00:15:56.654Z,11.29
2022-10-01T00:19:00.265Z,11.29
2022-10-01T00:22:02.010Z,11.32
2022-10-01T00:25:05.069Z,11.29
2022-10-01T00:28:06.936Z,11.37
2022-10-01T00:31:10.100Z,11.36
2022-10-01T00:34:13.418Z,11.25
2022-10-01T00:37:15.924Z,11.37
2022-10-01T00:40:19.537Z,11.35
2022-10-01T00:43:26.874Z,11.40
2022-10-01T00:46:37.856Z,11.48
2022-10-01T00:49:41.278Z,11.41
2022-10-01T00:52:47.734Z,11.26
2022-10-01T00:55:55.133Z,11.42
2022-10-01T00:58:57.288Z,11.46
2022-10-01T01:01:59.569Z,11.40
2022-10-01T01:05:01.327Z,11.20
2022-10-01T01:08:03.800Z,11.42
2022-10-01T01:11:15.171Z,11.36
2022-10-01T01:14:45.495Z,11.47
2022-10-01T01:17:57.587Z,11.43
2022-10-01T01:21:20.392Z,11.45
2022-10-01T01:24:43.938Z,11.21
2022-10-01T01:28:04.001Z,11.29
2022-10-01T01:31:09.183Z,11.15
2022-10-01T01:34:14.060Z,11.44
2022-10-01T01:37:19.188Z,11.44
2022-10-01T01:40:21.278Z,11.53
2022-10-01T01:43:37.992Z,11.10
2022-10-01T01:46:44.085Z,11.18
2022-10-01T01:49:46.010Z,11.43
2022-10-01T01:52:47.454Z,11.53
2022-10-01T01:55:49.870Z,11.43
2022-10-01T01:58:53.895Z,11.55
2022-10-01T02:01:55.416Z,11.43
2022-10-01T02:05:01.975Z,11.53
2022-10-01T02:08:27.891Z,11.27
2022-10-01T02:11:38.200Z,11.51
2022-10-01T02:15:00.461Z,11.51
2022-10-01T02:18:17.033Z,11.63
2022-10-01T02:21:27.428Z,11.63
2022-10-01T02:25:03.143Z,11.43
2022-10-01T02:28:09.676Z,11.58
2022-10-01T02:31:13.818Z,11.60
2022-10-01T02:34:20.227Z,11.43
2022-10-01T02:37:25.369Z,11.62
2022-10-01T02:40:33.482Z,11.61
2022-10-01T02:43:42.744Z,11.75
2022-10-01T02:46:52.622Z,11.68
2022-10-01T02:49:54.433Z,11.76
2022-10-01T02:53:02.334Z,11.68
2022-10-01T02:56:05.967Z,11.67
2022-10-01T02:59:08.124Z,11.66
2022-10-01T03:02:10.007Z,11.57
2022-10-01T03:05:11.469Z,11.68
2022-10-01T03:08:12.877Z,11.71
2022-10-01T03:11:16.055Z,11.71
2022-10-01T03:14:17.448Z,11.68
2022-10-01T03:17:18.964Z,11.66
2022-10-01T03:20:21.063Z,11.66
2022-10-01T03:23:22.581Z,11.66
2022-10-01T03:26:24.007Z,11.58
2022-10-01T03:29:26.307Z,11.54
2022-10-01T03:32:27.668Z,11.59
2022-10-01T03:35:29.046Z,11.62
2022-10-01T03:38:31.228Z,11.66
2022-10-01T03:41:32.992Z,11.58
2022-10-01T03:44:34.756Z,11.55
2022-10-01T03:47:36.218Z,11.54
2022-10-01T03:50:37.836Z,11.69
2022-10-01T03:53:39.271Z,11.70
2022-10-01T03:56:42.519Z,11.63
2022-10-01T03:59:43.900Z,11.79
2022-10-01T04:02:45.423Z,11.68
2022-10-01T04:05:47.194Z,11.69
2022-10-01T04:08:51.364Z,11.86
2022-10-01T04:11:52.819Z,11.96
2022-10-01T04:14:54.207Z,11.95
2022-10-01T04:17:55.677Z,11.91
2022-10-01T04:20:57.848Z,11.91
2022-10-01T04:23:59.654Z,12.01
2022-10-01T04:27:01.123Z,12.09
2022-10-01T04:30:02.771Z,12.24
2022-10-01T04:33:05.538Z,12.22
2022-10-01T04:36:07.100Z,12.14
2022-10-01T04:39:08.563Z,12.13
2022-10-01T04:42:10.039Z,12.18
2022-10-01T04:45:13.413Z,12.18
2022-10-01T04:48:14.799Z,12.10
2022-10-01T04:51:17.044Z,11.92
2022-10-01T04:54:18.452Z,11.84
2022-10-01T04:57:21.598Z,11.76
2022-10-01T05:00:25.767Z,11.84
2022-10-01T05:03:28.248Z,11.72
2022-10-01T05:06:29.656Z,11.61
2022-10-01T05:09:31.197Z,11.58
2022-10-01T05:12:32.577Z,11.37
2022-10-01T05:15:35.672Z,11.42
2022-10-01T05:18:37.382Z,11.30
2022-10-01T05:21:38.878Z,11.14
2022-10-01T05:24:40.425Z,11.22
2022-10-01T05:27:42.262Z,11.20
2022-10-01T05:30:43.666Z,10.91
2022-10-01T05:33:45.085Z,11.16
2022-10-01T05:36:46.516Z,11.08
2022-10-01T05:39:48.206Z,11.15
2022-10-01T05:42:49.817Z,11.10
2022-10-01T05:45:52.046Z,11.06
2022-10-01T05:48:53.517Z,11.14
2022-10-01T05:51:54.924Z,11.09
2022-10-01T05:54:57.252Z,11.03
2022-10-01T05:58:01.159Z,11.06
2022-10-01T06:01:03.990Z,10.97
2022-10-01T06:04:05.445Z,10.97
2022-10-01T06:07:06.842Z,10.90
2022-10-01T06:10:09.161Z,10.86
2022-10-01T06:13:11.422Z,10.98
2022-10-01T06:16:13.931Z,10.95
2022-10-01T06:19:17.485Z,10.87
2022-10-01T06:22:19.073Z,10.93
2022-10-01T06:25:20.556Z,10.75
2022-10-01T06:28:22.037Z,10.99
2022-10-01T06:31:23.905Z,10.97
2022-10-01T06:34:26.537Z,11.02
2022-10-01T06:37:28.058Z,10.99
2022-10-01T06:40:30.481Z,10.70
2022-10-01T06:43:33.027Z,11.06
2022-10-01T06:46:34.476Z,10.67
2022-10-01T06:49:35.904Z,10.82
2022-10-01T06:52:50.099Z,11.18
2022-10-01T06:55:51.588Z,11.15
2022-10-01T06:58:53.104Z,11.12
2022-10-01T07:01:56.522Z,11.02
2022-10-01T07:04:59.020Z,11.06
2022-10-01T07:08:00.788Z,10.99
2022-10-01T07:11:02.841Z,11.14
2022-10-01T07:14:04.366Z,11.16
2022-10-01T07:17:05.808Z,11.20
2022-10-01T07:20:07.929Z,11.27
2022-10-01T07:23:14.484Z,11.26
2022-10-01T07:26:15.913Z,11.11
2022-10-01T07:29:17.530Z,11.20
2022-10-01T07:32:19.327Z,11.07
2022-10-01T07:35:21.131Z,11.18
2022-10-01T07:38:22.569Z,11.18
2022-10-01T07:41:24.048Z,11.03
2022-10-01T07:44:27.758Z,11.05
2022-10-01T07:47:29.267Z,11.07
2022-10-01T07:50:30.777Z,11.16
2022-10-01T07:53:32.379Z,10.90
2022-10-01T07:56:33.764Z,11.04
2022-10-01T07:59:35.183Z,11.20
2022-10-01T08:02:37.552Z,11.14
2022-10-01T08:05:43.204Z,11.21
2022-10-01T08:08:44.763Z,11.07
2022-10-01T08:11:48.344Z,11.13
2022-10-01T08:14:49.823Z,11.27
2022-10-01T08:17:51.240Z,11.30
2022-10-01T08:20:52.759Z,11.32
2022-10-01T08:23:54.247Z,11.38
2022-10-01T08:26:56.391Z,11.28
2022-10-01T08:29:57.823Z,11.33
2022-10-01T08:33:00.846Z,11.29
2022-10-01T08:36:03.799Z,11.27
2022-10-01T08:39:05.384Z,11.14
2022-10-01T08:42:08.019Z,11.21
2022-10-01T08:45:36.625Z,11.31
2022-10-01T08:48:47.531Z,11.26
2022-10-01T08:51:57.740Z,11.07
2022-10-01T08:55:06.772Z,11.27
2022-10-01T08:58:12.692Z,11.14
2022-10-01T09:01:14.216Z,11.17
2022-10-01T09:04:15.802Z,11.13
2022-10-01T09:08:03.926Z,11.38
2022-10-01T09:11:12.347Z,11.36
2022-10-01T09:14:26.171Z,11.32
2022-10-01T09:17:48.106Z,11.17
2022-10-01T09:20:59.997Z,11.26
2022-10-01T09:24:14.997Z,11.42
2022-10-01T09:27:19.033Z,11.38
2022-10-01T09:30:23.398Z,11.36
2022-10-01T09:33:36.307Z,11.63
2022-10-01T09:37:04.589Z,11.71
2022-10-01T09:40:37.038Z,11.65
2022-10-01T09:43:40.652Z,11.65
2022-10-01T09:46:43.103Z,11.64
2022-10-01T09:49:46.169Z,11.75
2022-10-01T09:52:50.039Z,11.76
2022-10-01T09:55:59.524Z,11.70
2022-10-01T09:59:06.948Z,11.72
2022-10-01T10:02:37.500Z,11.91
2022-10-01T10:05:41.795Z,11.74
2022-10-01T10:08:45.602Z,11.84
2022-10-01T10:11:49.031Z,11.71
2022-10-01T10:14:50.566Z,11.95
2022-10-01T10:17:52.759Z,11.93
2022-10-01T10:20:54.673Z,11.95
2022-10-01T10:23:59.287Z,11.91
2022-10-01T10:27:03.317Z,12.01
2022-10-01T10:30:16.180Z,12.10
2022-10-01T10:33:20.733Z,12.15
2022-10-01T10:36:28.938Z,12.28
2022-10-01T10:39:39.693Z,12.42
2022-10-01T10:42:48.476Z,12.22
2022-10-01T10:45:57.294Z,12.34
2022-10-01T10:49:08.753Z,12.34
2022-10-01T10:52:33.477Z,12.41
2022-10-01T10:55:34.898Z,12.42
2022-10-01T10:58:42.482Z,12.44
2022-10-01T11:01:45.967Z,12.55
2022-10-01T11:04:47.496Z,12.46
2022-10-01T11:07:53.247Z,12.57
2022-10-01T11:11:13.124Z,12.67
2022-10-01T11:14:32.604Z,12.68
2022-10-01T11:18:01.486Z,12.63
2022-10-01T11:21:12.760Z,12.80
2022-10-01T11:24:35.987Z,12.78
2022-10-01T11:27:48.408Z,12.86
2022-10-01T11:30:59.041Z,12.81
2022-10-01T11:34:15.917Z,12.94
2022-10-01T11:37:48.353Z,12.97
2022-10-01T11:41:01.655Z,13.05
2022-10-01T11:44:35.736Z,13.12
2022-10-01T11:47:43.758Z,13.19
2022-10-01T11:50:49.161Z,13.26
2022-10-01T11:54:03.535Z,13.44
2022-10-01T11:57:23.635Z,13.41
2022-10-01T12:00:27.348Z,13.29
2022-10-01T12:03:37.519Z,13.45
2022-10-01T12:06:54.199Z,13.41
2022-10-01T12:10:22.685Z,13.45
2022-10-01T12:13:40.121Z,13.36
2022-10-01T12:16:50.300Z,13.56
2022-10-01T12:19:54.972Z,13.57
2022-10-01T12:22:59.010Z,13.66
2022-10-01T12:26:18.247Z,13.75
2022-10-01T12:29:25.257Z,13.78
2022-10-01T12:33:02.017Z,13.93
2022-10-01T12:36:19.232Z,14.02
2022-10-01T12:40:09.064Z,14.18
2022-10-01T12:43:42.614Z,14.25
2022-10-01T12:47:14.130Z,14.07
2022-10-01T12:50:38.321Z,14.00
2022-10-01T12:53:54.828Z,14.03
2022-10-01T12:57:04.294Z,13.97
2022-10-01T13:00:13.349Z,14.00
2022-10-01T13:03:32.649Z,13.92
2022-10-01T13:07:20.424Z,13.97
2022-10-01T13:10:53.985Z,13.92
2022-10-01T13:13:56.875Z,13.88
2022-10-01T13:17:30.400Z,13.90
2022-10-01T13:21:11.533Z,13.96
2022-10-01T13:24:27.241Z,14.06
2022-10-01T13:27:45.286Z,14.15
2022-10-01T13:30:59.054Z,14.17
2022-10-01T13:34:01.689Z,14.27
2022-10-01T13:37:18.159Z,14.21
2022-10-01T13:40:34.756Z,14.21
2022-10-01T13:43:36.373Z,14.25
2022-10-01T13:46:52.317Z,14.27
2022-10-01T13:50:24.300Z,14.30
2022-10-01T13:53:27.704Z,14.24
2022-10-01T13:56:36.784Z,14.17
2022-10-01T13:59:38.890Z,14.22
2022-10-01T14:02:57.130Z,14.16
2022-10-01T14:06:00.884Z,14.12
2022-10-01T14:09:23.725Z,14.14
2022-10-01T14:12:49.890Z,14.09
2022-10-01T14:15:59.642Z,14.11
2022-10-01T14:19:01.451Z,14.11
2022-10-01T14:22:42.032Z,14.14
2022-10-01T14:26:04.644Z,14.11
2022-10-01T14:29:24.712Z,14.01
2022-10-01T14:32:56.732Z,14.09
2022-10-01T14:35:58.126Z,14.06
2022-10-01T14:39:12.488Z,14.07
2022-10-01T14:42:17.608Z,14.03
2022-10-01T14:45:19.621Z,14.07
2022-10-01T14:48:22.865Z,14.00
2022-10-01T14:51:28.111Z,14.13
2022-10-01T14:54:33.575Z,14.07
2022-10-01T14:57:38.991Z,14.06
2022-10-01T15:00:50.236Z,14.13
2022-10-01T15:03:52.676Z,14.08
2022-10-01T15:06:54.200Z,14.14
2022-10-01T15:10:05.934Z,14.15
2022-10-01T15:13:07.527Z,14.13
2022-10-01T15:16:15.618Z,14.12
2022-10-01T15:19:20.425Z,14.27
2022-10-01T15:22:27.605Z,14.27
2022-10-01T15:25:31.584Z,14.32
2022-10-01T15:28:34.922Z,14.21
2022-10-01T15:31:37.203Z,14.34
2022-10-01T15:34:40.392Z,14.10
2022-10-01T15:37:45.667Z,14.36
2022-10-01T15:41:05.015Z,14.34
2022-10-01T15:44:45.280Z,14.26
2022-10-01T15:47:52.110Z,14.41
2022-10-01T15:51:03.286Z,14.43
2022-10-01T15:54:08.314Z,14.32
2022-10-01T15:57:17.738Z,14.48
2022-10-01T16:00:28.230Z,14.49
2022-10-01T16:03:33.929Z,14.34
2022-10-01T16:06:39.687Z,14.41
2022-10-01T16:09:51.621Z,14.58
2022-10-01T16:12:53.161Z,14.55
2022-10-01T16:16:08.994Z,14.43
2022-10-01T16:19:30.316Z,14.51
2022-10-01T16:22:33.806Z,14.54
2022-10-01T16:25:43.856Z,14.57
2022-10-01T16:28:45.472Z,14.35
2022-10-01T16:31:47.137Z,14.57
2022-10-01T16:34:49.077Z,14.53
2022-10-01T16:37:53.310Z,14.54
2022-10-01T16:40:54.903Z,14.56
2022-10-01T16:43:57.486Z,14.54
2022-10-01T16:46:59.118Z,14.57
2022-10-01T16:50:00.509Z,14.57
2022-10-01T16:53:03.051Z,14.57
2022-10-01T16:56:04.541Z,14.55
2022-10-01T16:59:05.996Z,14.56
2022-10-01T17:02:14.116Z,14.53
2022-10-01T17:05:20.118Z,14.53
2022-10-01T17:08:21.759Z,14.55
2022-10-01T17:11:25.424Z,14.45
2022-10-01T17:14:27.717Z,14.59
2022-10-01T17:17:29.097Z,14.60
2022-10-01T17:20:31.168Z,14.66
2022-10-01T17:23:34.761Z,14.62
2022-10-01T17:26:38.384Z,14.57
2022-10-01T17:29:39.963Z,14.63
2022-10-01T17:32:42.997Z,14.66
2022-10-01T17:35:46.741Z,14.67
2022-10-01T17:38:48.199Z,14.67
2022-10-01T17:41:49.625Z,14.65
2022-10-01T17:44:51.595Z,14.64
2022-10-01T17:47:53.267Z,14.67
2022-10-01T17:50:59.494Z,14.67
2022-10-01T17:54:03.128Z,14.70
2022-10-01T17:57:04.919Z,14.69
2022-10-01T18:00:07.017Z,14.69
2022-10-01T18:03:13.417Z,14.70
2022-10-01T18:06:16.047Z,14.80
2022-10-01T18:09:17.647Z,14.75
2022-10-01T18:12:19.598Z,14.74
2022-10-01T18:15:23.984Z,14.80
2022-10-01T18:19:51.268Z,14.76
2022-10-01T18:21:47.718Z,14.69
2022-10-01T18:24:49.247Z,14.85
2022-10-01T18:27:50.714Z,14.91
2022-10-01T18:31:12.398Z,14.87
2022-10-01T18:34:38.547Z,14.93
2022-10-01T18:37:46.768Z,14.89
2022-10-01T18:40:56.567Z,14.83
2022-10-01T18:43:58.308Z,14.82
2022-10-01T18:47:17.180Z,14.80
2022-10-01T18:50:27.865Z,14.80
2022-10-01T18:53:41.880Z,14.82
2022-10-01T18:57:05.260Z,14.84
2022-10-01T19:00:08.500Z,14.86
2022-10-01T19:03:38.599Z,14.83
2022-10-01T19:07:02.387Z,14.88
2022-10-01T19:10:29.760Z,14.86
2022-10-01T19:13:48.872Z,14.87
2022-10-01T19:17:14.963Z,14.86
2022-10-01T19:20:45.916Z,14.84
2022-10-01T19:24:06.437Z,14.88
2022-10-01T19:27:26.561Z,14.85
2022-10-01T19:30:36.633Z,14.80
2022-10-01T19:33:50.445Z,14.72
2022-10-01T19:37:02.032Z,14.79
2022-10-01T19:40:16.897Z,14.81
2022-10-01T19:43:37.798Z,14.77
2022-10-01T19:46:45.574Z,14.68
2022-10-01T19:49:50.090Z,14.69
2022-10-01T19:52:55.265Z,14.67
2022-10-01T19:56:00.905Z,14.76
2022-10-01T19:59:10.718Z,14.79
2022-10-01T20:02:46.238Z,14.82
2022-10-01T20:05:55.508Z,14.85
2022-10-01T20:09:12.948Z,14.82
2022-10-01T20:12:49.895Z,14.88
2022-10-01T20:16:25.492Z,14.89
2022-10-01T20:19:39.251Z,14.89
2022-10-01T20:23:27.324Z,14.93
2022-10-01T20:26:50.798Z,14.89
2022-10-01T20:30:04.371Z,14.92
2022-10-01T20:33:20.032Z,14.95
2022-10-01T20:36:49.359Z,14.98
2022-10-01T20:39:58.063Z,15.00
2022-10-01T20:43:33.654Z,15.04
2022-10-01T20:46:39.528Z,14.90
2022-10-01T20:49:53.009Z,15.00
2022-10-01T20:53:03.999Z,15.00
2022-10-01T20:56:20.856Z,15.02
2022-10-01T20:59:32.990Z,15.00
2022-10-01T21:02:42.265Z,15.08
2022-10-01T21:06:03.697Z,14.98
2022-10-01T21:09:20.334Z,15.03
2022-10-01T21:12:27.103Z,15.02
2022-10-01T21:15:57.946Z,15.08
2022-10-01T21:19:30.775Z,15.05
2022-10-01T21:22:54.266Z,14.99
2022-10-01T21:26:18.640Z,14.96
2022-10-01T21:29:28.053Z,14.90
2022-10-01T21:32:49.806Z,14.86
2022-10-01T21:35:56.633Z,14.90
2022-10-01T21:39:09.205Z,14.93
2022-10-01T21:42:16.719Z,14.96
2022-10-01T21:45:52.907Z,14.94
2022-10-01T21:49:20.056Z,15.00
2022-10-01T21:52:33.703Z,15.03
2022-10-01T21:55:44.221Z,14.99
2022-10-01T21:59:17.731Z,14.98
2022-10-01T22:02:53.479Z,15.03
2022-10-01T22:06:34.979Z,14.97
2022-10-01T22:10:01.552Z,15.07
2022-10-01T22:13:06.559Z,14.99
2022-10-01T22:16:14.506Z,14.97
2022-10-01T22:19:27.510Z,15.02
2022-10-01T22:22:33.825Z,15.06
2022-10-01T22:25:43.412Z,15.02
2022-10-01T22:28:51.736Z,15.04
2022-10-01T22:31:57.958Z,14.96
2022-10-01T22:35:04.463Z,15.12
2022-10-01T22:38:14.959Z,15.05
2022-10-01T22:41:34.880Z,15.00
2022-10-01T22:44:36.669Z,15.06
2022-10-01T22:47:52.579Z,15.06
2022-10-01T22:51:19.436Z,15.08
2022-10-01T22:54:23.934Z,15.03
2022-10-01T22:58:11.328Z,15.08
2022-10-01T23:01:24.950Z,15.14
2022-10-01T23:04:43.034Z,15.08
2022-10-01T23:08:07.774Z,15.06
2022-10-01T23:11:21.543Z,15.04
2022-10-01T23:14:43.467Z,15.05
2022-10-01T23:18:04.692Z,14.95
2022-10-01T23:21:11.652Z,14.95
2022-10-01T23:24:28.522Z,14.89
2022-10-01T23:27:53.112Z,14.93
2022-10-01T23:31:04.330Z,14.91
2022-10-01T23:34:24.682Z,14.88
2022-10-01T23:37:29.273Z,14.95
2022-10-01T23:40:34.381Z,14.91
2022-10-01T23:43:43.199Z,14.91
2022-10-01T23:46:50.217Z,14.91
2022-10-01T23:49:57.406Z,14.91
2022-10-01T23:53:20.894Z,14.95
2022-10-01T23:56:45.632Z,14.97
